createdAt,value
2023-06-07T00:29:52.278Z,23.81
2023-06-07T00:49:52.232Z,23.81
2023-06-07T01:09:52.216Z,23.81
2023-06-07T01:49:52.161Z,23.81
2023-06-07T02:09:52.177Z,23.81
2023-06-07T02:29:52.177Z,23.81
2023-06-07T02:49:52.141Z,23.8
2023-06-07T03:09:52.147Z,23.8
2023-06-07T03:29:52.114Z,23.8
2023-06-07T03:49:52.102Z,23.8
2023-06-07T04:29:52.051Z,23.8
2023-06-07T04:49:52.035Z,23.8
2023-06-07T05:09:52.036Z,23.8
2023-06-07T05:49:52.065Z,23.8
2023-06-07T06:09:51.984Z,23.8
2023-06-07T06:29:51.957Z,23.8
2023-06-07T06:49:51.958Z,23.8
2023-06-07T07:09:51.927Z,23.8
2023-06-07T07:29:51.911Z,23.79
2023-06-07T07:49:51.895Z,23.8
2023-06-07T08:09:51.936Z,23.79
2023-06-07T08:29:51.872Z,23.8
2023-06-07T08:49:51.859Z,23.79
2023-06-07T09:09:51.833Z,23.79
2023-06-07T09:29:51.835Z,23.79
2023-06-07T09:49:51.845Z,23.79
2023-06-07T10:09:51.879Z,23.79
2023-06-07T10:29:51.776Z,23.79
2023-06-07T10:49:51.821Z,23.79
2023-06-07T11:09:51.760Z,23.78
2023-06-07T11:29:51.740Z,23.78
2023-06-07T11:49:51.774Z,23.78
2023-06-07T12:09:51.754Z,23.78
2023-06-07T12:29:51.688Z,23.78
2023-06-07T12:49:51.749Z,23.77
2023-06-07T13:09:51.720Z,23.76
2023-06-07T13:29:51.665Z,23.76
2023-06-07T13:49:51.624Z,23.75
2023-06-07T14:09:51.655Z,23.75
2023-06-07T14:29:51.588Z,23.74
2023-06-07T14:49:51.580Z,23.74
2023-06-07T15:09:51.557Z,23.73
2023-06-07T15:29:51.565Z,23.72
2023-06-07T15:49:51.561Z,23.71
2023-06-07T16:09:51.521Z,23.71
2023-06-07T16:29:51.546Z,23.7
2023-06-07T16:49:51.476Z,23.69
2023-06-07T17:29:51.460Z,23.68
2023-06-07T17:49:51.494Z,23.67
2023-06-07T18:09:51.531Z,23.67
2023-06-07T18:29:51.444Z,23.67
2023-06-07T18:49:51.438Z,23.67
2023-06-07T19:09:51.359Z,23.66
2023-06-07T19:29:51.438Z,23.66
2023-06-07T19:49:51.360Z,23.66
2023-06-07T20:09:51.332Z,23.66
2023-06-07T20:29:51.297Z,23.66
2023-06-07T20:49:51.309Z,23.66
2023-06-07T21:09:51.273Z,23.66
2023-06-07T21:29:51.284Z,23.66
2023-06-07T21:49:51.269Z,23.66
2023-06-07T22:09:50.708Z,23.65
2023-06-07T22:49:51.209Z,23.65
2023-06-07T23:09:51.184Z,23.65
2023-06-07T23:29:51.173Z,23.65
2023-06-07T23:49:51.151Z,23.65
